sensor_id;sensor_type;location;lat;lon;timestamp;temperature;humidity
3980;DHT22;2004;52.452;13.120;2023-12-22T00:06:19;4.80;99.90
3980;DHT22;2004;52.452;13.120;2023-12-22T00:14:10;4.70;99.90
3980;DHT22;2004;52.452;13.120;2023-12-22T00:22:01;4.60;99.90
3980;DHT22;2004;52.452;13.120;2023-12-22T00:29:53;4.60;99.90
3980;DHT22;2004;52.452;13.120;2023-12-22T00:37:44;4.60;99.90
3980;DHT22;2004;52.452;13.120;2023-12-22T00:45:35;4.60;99.90
3980;DHT22;2004;52.452;13.120;2023-12-22T00:53:25;4.50;99.90
3980;DHT22;2004;52.452;13.120;2023-12-22T01:01:16;4.40;99.90
3980;DHT22;2004;52.452;13.120;2023-12-22T01:09:07;4.40;99.90
3980;DHT22;2004;52.452;13.120;2023-12-22T01:16:57;4.40;99.90
3980;DHT22;2004;52.452;13.120;2023-12-22T01:24:49;4.40;99.90
3980;DHT22;2004;52.452;13.120;2023-12-22T01:32:41;4.50;99.90
3980;DHT22;2004;52.452;13.120;2023-12-22T01:40:32;4.40;99.90
3980;DHT22;2004;52.452;13.120;2023-12-22T01:48:23;4.40;99.90
3980;DHT22;2004;52.452;13.120;2023-12-22T01:56:14;4.40;99.90
3980;DHT22;2004;52.452;13.120;2023-12-22T02:04:05;4.40;99.90
3980;DHT22;2004;52.452;13.120;2023-12-22T02:11:56;4.40;99.90
3980;DHT22;2004;52.452;13.120;2023-12-22T02:19:47;4.40;99.90
3980;DHT22;2004;52.452;13.120;2023-12-22T02:35:38;4.40;99.90
3980;DHT22;2004;52.452;13.120;2023-12-22T02:43:32;4.40;99.90
3980;DHT22;2004;52.452;13.120;2023-12-22T02:51:23;4.40;99.90
3980;DHT22;2004;52.452;13.120;2023-12-22T02:59:13;4.40;99.90
3980;DHT22;2004;52.452;13.120;2023-12-22T03:07:04;4.40;99.90
3980;DHT22;2004;52.452;13.120;2023-12-22T03:14:55;4.40;99.90
3980;DHT22;2004;52.452;13.120;2023-12-22T03:22:45;4.40;99.90
3980;DHT22;2004;52.452;13.120;2023-12-22T03:30:36;4.30;99.90
3980;DHT22;2004;52.452;13.120;2023-12-22T03:38:28;4.30;99.90
3980;DHT22;2004;52.452;13.120;2023-12-22T03:46:19;4.30;99.90
3980;DHT22;2004;52.452;13.120;2023-12-22T03:54:10;4.30;99.90
3980;DHT22;2004;52.452;13.120;2023-12-22T04:02:02;4.30;99.90
3980;DHT22;2004;52.452;13.120;2023-12-22T04:09:53;4.10;99.90
3980;DHT22;2004;52.452;13.120;2023-12-22T04:17:43;3.90;99.90
3980;DHT22;2004;52.452;13.120;2023-12-22T04:25:34;3.80;99.90
3980;DHT22;2004;52.452;13.120;2023-12-22T04:33:24;3.70;99.90
3980;DHT22;2004;52.452;13.120;2023-12-22T04:41:18;3.70;99.90
3980;DHT22;2004;52.452;13.120;2023-12-22T04:49:09;3.60;99.90
3980;DHT22;2004;52.452;13.120;2023-12-22T04:56:59;3.40;99.90
3980;DHT22;2004;52.452;13.120;2023-12-22T05:04:50;3.20;99.90
3980;DHT22;2004;52.452;13.120;2023-12-22T05:12:41;3.00;99.90
3980;DHT22;2004;52.452;13.120;2023-12-22T05:20:31;2.90;99.90
3980;DHT22;2004;52.452;13.120;2023-12-22T05:28:22;2.90;99.90
3980;DHT22;2004;52.452;13.120;2023-12-22T05:36:13;2.90;99.90
3980;DHT22;2004;52.452;13.120;2023-12-22T05:44:04;3.00;99.90
3980;DHT22;2004;52.452;13.120;2023-12-22T05:51:56;3.00;99.90
3980;DHT22;2004;52.452;13.120;2023-12-22T05:59:46;3.00;99.90
3980;DHT22;2004;52.452;13.120;2023-12-22T06:07:37;3.00;99.90
3980;DHT22;2004;52.452;13.120;2023-12-22T06:15:29;2.90;99.90
3980;DHT22;2004;52.452;13.120;2023-12-22T06:23:20;2.90;99.90
3980;DHT22;2004;52.452;13.120;2023-12-22T06:31:19;3.00;99.90
3980;DHT22;2004;52.452;13.120;2023-12-22T06:39:10;3.00;99.90
3980;DHT22;2004;52.452;13.120;2023-12-22T06:47:01;3.00;99.90
3980;DHT22;2004;52.452;13.120;2023-12-22T06:54:51;3.00;99.90
3980;DHT22;2004;52.452;13.120;2023-12-22T07:02:42;3.10;99.90
3980;DHT22;2004;52.452;13.120;2023-12-22T07:10:33;3.20;99.90
3980;DHT22;2004;52.452;13.120;2023-12-22T07:18:24;3.30;99.90
3980;DHT22;2004;52.452;13.120;2023-12-22T07:26:17;3.40;99.90
3980;DHT22;2004;52.452;13.120;2023-12-22T07:34:08;3.40;99.90
3980;DHT22;2004;52.452;13.120;2023-12-22T07:41:58;3.40;99.90
3980;DHT22;2004;52.452;13.120;2023-12-22T07:49:49;3.50;99.90
3980;DHT22;2004;52.452;13.120;2023-12-22T07:57:41;3.50;99.90
3980;DHT22;2004;52.452;13.120;2023-12-22T08:05:31;3.50;99.90
3980;DHT22;2004;52.452;13.120;2023-12-22T08:13:24;3.50;99.90
3980;DHT22;2004;52.452;13.120;2023-12-22T08:21:15;3.40;99.90
3980;DHT22;2004;52.452;13.120;2023-12-22T08:29:07;3.20;99.90
3980;DHT22;2004;52.452;13.120;2023-12-22T08:36:58;3.00;99.90
3980;DHT22;2004;52.452;13.120;2023-12-22T08:44:50;2.90;99.90
3980;DHT22;2004;52.452;13.120;2023-12-22T08:52:41;3.00;99.90
3980;DHT22;2004;52.452;13.120;2023-12-22T09:00:32;3.10;99.90
3980;DHT22;2004;52.452;13.120;2023-12-22T09:08:22;3.20;99.90
3980;DHT22;2004;52.452;13.120;2023-12-22T09:16:13;3.30;99.90
3980;DHT22;2004;52.452;13.120;2023-12-22T09:24:06;3.40;99.90
3980;DHT22;2004;52.452;13.120;2023-12-22T09:31:57;3.50;99.90
3980;DHT22;2004;52.452;13.120;2023-12-22T09:39:48;3.60;99.90
3980;DHT22;2004;52.452;13.120;2023-12-22T09:47:43;3.60;99.90
3980;DHT22;2004;52.452;13.120;2023-12-22T09:55:35;3.70;99.90
3980;DHT22;2004;52.452;13.120;2023-12-22T10:03:26;3.70;99.90
3980;DHT22;2004;52.452;13.120;2023-12-22T10:11:18;3.80;99.90
3980;DHT22;2004;52.452;13.120;2023-12-22T10:19:09;4.00;99.90
3980;DHT22;2004;52.452;13.120;2023-12-22T10:27:00;4.10;99.90
3980;DHT22;2004;52.452;13.120;2023-12-22T10:34:51;4.20;99.90
3980;DHT22;2004;52.452;13.120;2023-12-22T10:42:43;4.30;99.90
3980;DHT22;2004;52.452;13.120;2023-12-22T10:50:33;4.30;99.90
3980;DHT22;2004;52.452;13.120;2023-12-22T10:58:24;4.30;99.90
3980;DHT22;2004;52.452;13.120;2023-12-22T11:06:15;4.30;99.90
3980;DHT22;2004;52.452;13.120;2023-12-22T11:14:07;4.40;99.90
3980;DHT22;2004;52.452;13.120;2023-12-22T11:21:58;4.40;99.90
3980;DHT22;2004;52.452;13.120;2023-12-22T11:29:50;4.50;99.90
3980;DHT22;2004;52.452;13.120;2023-12-22T11:37:42;4.40;99.90
3980;DHT22;2004;52.452;13.120;2023-12-22T11:45:33;4.40;99.90
3980;DHT22;2004;52.452;13.120;2023-12-22T11:53:29;4.50;99.90
3980;DHT22;2004;52.452;13.120;2023-12-22T12:01:22;4.50;99.90
3980;DHT22;2004;52.452;13.120;2023-12-22T12:09:13;4.60;99.90
3980;DHT22;2004;52.452;13.120;2023-12-22T12:17:09;4.70;99.90
3980;DHT22;2004;52.452;13.120;2023-12-22T12:25:07;4.70;99.90
3980;DHT22;2004;52.452;13.120;2023-12-22T12:33:12;4.70;99.90
3980;DHT22;2004;52.452;13.120;2023-12-22T12:41:09;4.70;99.90
3980;DHT22;2004;52.452;13.120;2023-12-22T12:49:06;4.70;99.90
3980;DHT22;2004;52.452;13.120;2023-12-22T12:56:57;4.70;99.90
3980;DHT22;2004;52.452;13.120;2023-12-22T13:04:47;4.60;99.90
3980;DHT22;2004;52.452;13.120;2023-12-22T13:12:38;4.60;99.90
3980;DHT22;2004;52.452;13.120;2023-12-22T13:20:29;4.70;99.90
3980;DHT22;2004;52.452;13.120;2023-12-22T13:28:26;4.70;99.90
3980;DHT22;2004;52.452;13.120;2023-12-22T13:36:18;4.70;99.90
3980;DHT22;2004;52.452;13.120;2023-12-22T13:44:09;4.70;99.90
3980;DHT22;2004;52.452;13.120;2023-12-22T13:51:59;4.80;99.90
3980;DHT22;2004;52.452;13.120;2023-12-22T13:59:52;4.70;99.90
3980;DHT22;2004;52.452;13.120;2023-12-22T14:07:43;4.60;99.90
3980;DHT22;2004;52.452;13.120;2023-12-22T14:15:34;4.40;99.90
3980;DHT22;2004;52.452;13.120;2023-12-22T14:23:25;4.30;99.90
3980;DHT22;2004;52.452;13.120;2023-12-22T14:31:16;4.10;99.90
3980;DHT22;2004;52.452;13.120;2023-12-22T14:39:07;4.00;99.90
3980;DHT22;2004;52.452;13.120;2023-12-22T14:47:00;4.00;99.90
3980;DHT22;2004;52.452;13.120;2023-12-22T14:54:51;3.90;99.90
3980;DHT22;2004;52.452;13.120;2023-12-22T15:02:41;3.90;99.90
3980;DHT22;2004;52.452;13.120;2023-12-22T15:10:32;3.90;99.90
3980;DHT22;2004;52.452;13.120;2023-12-22T15:18:23;3.80;99.90
3980;DHT22;2004;52.452;13.120;2023-12-22T15:26:21;3.90;99.90
3980;DHT22;2004;52.452;13.120;2023-12-22T15:34:12;3.90;99.90
3980;DHT22;2004;52.452;13.120;2023-12-22T15:42:03;3.90;99.90
3980;DHT22;2004;52.452;13.120;2023-12-22T15:49:54;4.00;99.90
3980;DHT22;2004;52.452;13.120;2023-12-22T15:57:44;3.90;99.90
3980;DHT22;2004;52.452;13.120;2023-12-22T16:05:35;3.90;99.90
3980;DHT22;2004;52.452;13.120;2023-12-22T16:13:25;3.90;99.90
3980;DHT22;2004;52.452;13.120;2023-12-22T16:21:19;3.90;99.90
3980;DHT22;2004;52.452;13.120;2023-12-22T16:29:10;3.90;99.90
3980;DHT22;2004;52.452;13.120;2023-12-22T16:37:00;3.90;99.90
3980;DHT22;2004;52.452;13.120;2023-12-22T16:44:51;4.00;99.90
3980;DHT22;2004;52.452;13.120;2023-12-22T16:52:42;4.00;99.90
3980;DHT22;2004;52.452;13.120;2023-12-22T17:00:32;4.00;99.90
3980;DHT22;2004;52.452;13.120;2023-12-22T17:08:23;4.00;99.90
3980;DHT22;2004;52.452;13.120;2023-12-22T17:16:14;4.00;99.90
3980;DHT22;2004;52.452;13.120;2023-12-22T17:24:04;4.00;99.90
3980;DHT22;2004;52.452;13.120;2023-12-22T17:31:56;4.00;99.90
3980;DHT22;2004;52.452;13.120;2023-12-22T17:39:47;4.00;99.90
3980;DHT22;2004;52.452;13.120;2023-12-22T17:47:37;3.90;99.90
3980;DHT22;2004;52.452;13.120;2023-12-22T17:55:28;3.90;99.90
3980;DHT22;2004;52.452;13.120;2023-12-22T18:03:25;3.90;99.90
3980;DHT22;2004;52.452;13.120;2023-12-22T18:11:15;3.90;99.90
3980;DHT22;2004;52.452;13.120;2023-12-22T18:19:06;3.90;99.90
3980;DHT22;2004;52.452;13.120;2023-12-22T18:26:57;4.00;99.90
3980;DHT22;2004;52.452;13.120;2023-12-22T18:34:48;4.00;99.90
3980;DHT22;2004;52.452;13.120;2023-12-22T18:42:39;4.00;99.90
3980;DHT22;2004;52.452;13.120;2023-12-22T18:50:29;4.00;99.90
3980;DHT22;2004;52.452;13.120;2023-12-22T18:58:20;4.10;99.90
3980;DHT22;2004;52.452;13.120;2023-12-22T19:06:14;4.10;99.90
3980;DHT22;2004;52.452;13.120;2023-12-22T19:14:05;4.10;99.90
3980;DHT22;2004;52.452;13.120;2023-12-22T19:21:56;4.10;99.90
3980;DHT22;2004;52.452;13.120;2023-12-22T19:29:46;4.20;99.90
3980;DHT22;2004;52.452;13.120;2023-12-22T19:37:37;4.20;99.90
3980;DHT22;2004;52.452;13.120;2023-12-22T19:45:27;4.20;99.90
3980;DHT22;2004;52.452;13.120;2023-12-22T19:53:18;4.20;99.90
3980;DHT22;2004;52.452;13.120;2023-12-22T20:01:09;4.20;99.90
3980;DHT22;2004;52.452;13.120;2023-12-22T20:08:59;4.10;99.90
3980;DHT22;2004;52.452;13.120;2023-12-22T20:16:50;4.10;99.90
3980;DHT22;2004;52.452;13.120;2023-12-22T20:24:43;4.00;99.90
3980;DHT22;2004;52.452;13.120;2023-12-22T20:32:33;3.90;99.90
3980;DHT22;2004;52.452;13.120;2023-12-22T20:40:24;3.80;99.90
3980;DHT22;2004;52.452;13.120;2023-12-22T20:48:15;3.70;99.90
3980;DHT22;2004;52.452;13.120;2023-12-22T20:56:35;3.60;99.90
3980;DHT22;2004;52.452;13.120;2023-12-22T21:04:26;3.60;99.90
3980;DHT22;2004;52.452;13.120;2023-12-22T21:12:23;3.50;99.90
3980;DHT22;2004;52.452;13.120;2023-12-22T21:20:27;3.40;99.90
3980;DHT22;2004;52.452;13.120;2023-12-22T21:28:32;3.40;99.90
3980;DHT22;2004;52.452;13.120;2023-12-22T21:36:26;3.30;99.90
3980;DHT22;2004;52.452;13.120;2023-12-22T21:44:19;2.90;99.90
3980;DHT22;2004;52.452;13.120;2023-12-22T21:52:12;2.40;99.90
3980;DHT22;2004;52.452;13.120;2023-12-22T22:00:10;2.00;99.90
3980;DHT22;2004;52.452;13.120;2023-12-22T22:08:17;1.80;99.90
3980;DHT22;2004;52.452;13.120;2023-12-22T22:16:24;1.60;99.90
3980;DHT22;2004;52.452;13.120;2023-12-22T22:24:58;1.60;99.90
3980;DHT22;2004;52.452;13.120;2023-12-22T22:32:52;1.60;99.90
3980;DHT22;2004;52.452;13.120;2023-12-22T22:41:01;1.50;99.90
3980;DHT22;2004;52.452;13.120;2023-12-22T22:49:16;1.50;99.90
3980;DHT22;2004;52.452;13.120;2023-12-22T22:57:07;1.50;99.90
3980;DHT22;2004;52.452;13.120;2023-12-22T23:05:00;1.40;99.90
3980;DHT22;2004;52.452;13.120;2023-12-22T23:12:52;1.40;99.90
3980;DHT22;2004;52.452;13.120;2023-12-22T23:20:45;1.40;99.90
3980;DHT22;2004;52.452;13.120;2023-12-22T23:28:36;1.40;99.90
3980;DHT22;2004;52.452;13.120;2023-12-22T23:36:32;1.40;99.90
3980;DHT22;2004;52.452;13.120;2023-12-22T23:44:33;1.40;99.90
3980;DHT22;2004;52.452;13.120;2023-12-22T23:52:28;1.40;99.90
